createdAt,value
2023-10-28T00:00:57.106Z,91.01
2023-10-28T00:03:25.314Z,91.14
2023-10-28T00:05:53.488Z,90.78
2023-10-28T00:08:21.736Z,90.55
2023-10-28T00:10:50.339Z,90.92
2023-10-28T00:13:18.686Z,90.76
2023-10-28T00:15:52.590Z,90.94
2023-10-28T00:26:11.889Z,90.88
2023-10-28T00:28:41.882Z,91.38
2023-10-28T00:31:18.997Z,91.70
2023-10-28T00:33:48.228Z,91.11
2023-10-28T00:36:16.710Z,90.81
2023-10-28T00:38:45.043Z,90.67
2023-10-28T00:41:14.962Z,90.38
2023-10-28T00:43:43.422Z,91.20
2023-10-28T00:46:13.497Z,91.17
2023-10-28T00:48:42.141Z,90.59
2023-10-28T00:51:10.760Z,90.45
2023-10-28T00:53:39.737Z,90.55
2023-10-28T00:56:08.667Z,90.20
2023-10-28T00:58:38.212Z,90.15
2023-10-28T01:01:09.745Z,90.13
2023-10-28T01:03:41.489Z,90.67
2023-10-28T01:06:11.962Z,91.19
2023-10-28T01:08:41.244Z,90.96
2023-10-28T01:11:10.799Z,91.18
2023-10-28T01:13:40.001Z,92.01
2023-10-28T01:16:10.545Z,91.95
2023-10-28T01:18:40.448Z,92.03
2023-10-28T01:21:14.303Z,91.49
2023-10-28T01:23:44.832Z,92.17
2023-10-28T01:26:13.804Z,92.21
2023-10-28T01:28:42.475Z,91.34
2023-10-28T01:31:11.408Z,91.07
2023-10-28T01:33:39.582Z,90.37
2023-10-28T01:36:09.110Z,91.01
2023-10-28T01:38:39.155Z,90.31
2023-10-28T01:41:07.816Z,90.63
2023-10-28T01:43:36.669Z,90.49
2023-10-28T01:46:05.892Z,89.81
2023-10-28T01:48:34.298Z,89.11
2023-10-28T01:51:03.170Z,89.05
2023-10-28T01:53:35.385Z,89.30
2023-10-28T01:56:07.293Z,89.17
2023-10-28T01:58:35.670Z,88.80
2023-10-28T02:01:04.578Z,89.16
2023-10-28T02:03:33.746Z,88.88
2023-10-28T02:06:01.978Z,89.01
2023-10-28T02:08:30.436Z,89.41
2023-10-28T02:10:58.925Z,89.05
2023-10-28T02:13:28.975Z,89.75
2023-10-28T02:15:57.961Z,89.94
2023-10-28T02:18:26.762Z,89.54
2023-10-28T02:20:56.507Z,89.99
2023-10-28T02:23:24.753Z,89.75
2023-10-28T02:25:54.028Z,89.91
2023-10-28T02:28:22.666Z,90.43
2023-10-28T02:30:53.146Z,91.23
2023-10-28T02:33:21.544Z,91.14
2023-10-28T02:35:49.793Z,91.36
2023-10-28T02:38:18.810Z,90.90
2023-10-28T02:40:48.323Z,90.87
2023-10-28T02:43:16.859Z,91.69
2023-10-28T02:45:45.943Z,91.92
2023-10-28T02:48:15.810Z,91.64
2023-10-28T02:50:44.173Z,91.46
2023-10-28T02:53:12.697Z,91.97
2023-10-28T02:55:41.787Z,91.70
2023-10-28T02:58:11.173Z,91.70
2023-10-28T03:00:39.705Z,91.96
2023-10-28T03:03:08.383Z,92.30
2023-10-28T03:05:37.915Z,91.91
2023-10-28T03:08:06.874Z,92.39
2023-10-28T03:10:36.340Z,92.78
2023-10-28T03:13:05.138Z,92.12
2023-10-28T03:15:33.509Z,92.05
2023-10-28T03:18:02.757Z,92.14
2023-10-28T03:20:31.409Z,91.91
2023-10-28T03:23:01.122Z,92.41
2023-10-28T03:25:29.913Z,91.59
2023-10-28T03:27:59.428Z,91.10
2023-10-28T03:30:28.476Z,91.55
2023-10-28T03:32:57.943Z,92.22
2023-10-28T03:35:26.430Z,92.17
2023-10-28T03:37:56.864Z,91.77
2023-10-28T03:40:27.718Z,91.95
2023-10-28T03:42:56.699Z,91.78
2023-10-28T03:45:26.138Z,91.27
2023-10-28T03:47:54.797Z,91.10
2023-10-28T03:50:23.592Z,92.02
2023-10-28T03:52:52.231Z,91.64
2023-10-28T03:55:19.424Z,91.48
2023-10-28T03:57:49.154Z,91.63
2023-10-28T04:00:17.796Z,91.16
2023-10-28T04:02:46.440Z,90.95
2023-10-28T04:05:15.134Z,90.08
2023-10-28T04:07:44.169Z,90.21
2023-10-28T04:10:12.611Z,90.37
2023-10-28T04:12:41.927Z,90.18
2023-10-28T04:15:14.400Z,89.70
2023-10-28T04:17:43.228Z,90.08
2023-10-28T04:20:12.245Z,89.74
2023-10-28T04:22:41.341Z,89.75
2023-10-28T04:25:09.766Z,89.38
2023-10-28T04:27:38.446Z,88.82
2023-10-28T04:30:08.833Z,89.11
2023-10-28T04:32:39.126Z,89.20
2023-10-28T04:35:15.740Z,88.96
2023-10-28T04:37:55.228Z,89.64
2023-10-28T04:40:23.840Z,89.18
2023-10-28T04:42:53.291Z,89.34
2023-10-28T04:45:22.531Z,89.55
2023-10-28T04:47:53.050Z,89.11
2023-10-28T04:50:22.067Z,89.91
2023-10-28T04:52:51.136Z,90.18
2023-10-28T04:55:19.437Z,91.00
2023-10-28T04:57:47.522Z,89.86
2023-10-28T05:00:17.945Z,90.36
2023-10-28T05:02:46.817Z,90.36
2023-10-28T05:05:17.423Z,90.95
2023-10-28T05:07:46.189Z,91.01
2023-10-28T05:10:14.667Z,90.78
2023-10-28T05:12:43.279Z,90.56
2023-10-28T05:15:12.183Z,90.83
2023-10-28T05:17:42.322Z,90.94
2023-10-28T05:20:11.519Z,91.08
2023-10-28T05:22:42.709Z,90.72
2023-10-28T05:25:11.134Z,91.01
2023-10-28T05:27:39.595Z,90.41
2023-10-28T05:30:12.532Z,90.66
2023-10-28T05:32:41.552Z,89.83
2023-10-28T05:35:12.263Z,90.41
2023-10-28T05:37:42.009Z,90.04
2023-10-28T05:40:14.332Z,89.76
2023-10-28T05:42:42.999Z,89.56
2023-10-28T05:45:11.970Z,88.93
2023-10-28T05:47:40.438Z,89.17
2023-10-28T05:50:09.661Z,89.36
2023-10-28T05:52:39.764Z,89.46
2023-10-28T05:55:13.758Z,89.39
2023-10-28T05:57:42.582Z,90.07
2023-10-28T06:00:12.506Z,89.81
2023-10-28T06:02:41.408Z,89.72
2023-10-28T06:05:10.691Z,89.47
2023-10-28T06:07:39.944Z,89.75
2023-10-28T06:10:11.953Z,90.38
2023-10-28T06:12:40.258Z,89.95
2023-10-28T06:15:09.861Z,90.44
2023-10-28T06:17:38.040Z,90.25
2023-10-28T06:20:07.903Z,90.24
2023-10-28T06:22:36.586Z,90.23
2023-10-28T06:25:05.662Z,89.54
2023-10-28T06:27:35.608Z,89.71
2023-10-28T06:30:04.984Z,89.56
2023-10-28T06:32:33.577Z,89.84
2023-10-28T06:35:02.145Z,89.53
2023-10-28T06:37:31.028Z,89.97
2023-10-28T06:39:59.871Z,89.69
2023-10-28T06:42:28.303Z,89.81
2023-10-28T06:44:57.938Z,89.71
2023-10-28T06:47:26.575Z,89.38
2023-10-28T06:49:54.948Z,89.41
2023-10-28T06:52:23.781Z,89.30
2023-10-28T06:54:52.921Z,89.40
2023-10-28T06:57:21.294Z,89.20
2023-10-28T06:59:50.114Z,89.31
2023-10-28T07:02:20.510Z,89.01
2023-10-28T07:04:49.050Z,88.79
2023-10-28T07:07:17.376Z,89.02
2023-10-28T07:09:46.092Z,88.75
2023-10-28T07:12:14.646Z,88.68
2023-10-28T07:14:43.992Z,88.51
2023-10-28T07:17:12.621Z,87.91
2023-10-28T07:19:43.732Z,87.80
2023-10-28T07:22:12.478Z,88.03
2023-10-28T07:24:40.757Z,88.10
2023-10-28T07:27:09.417Z,88.18
2023-10-28T07:29:39.323Z,88.13
2023-10-28T07:32:08.812Z,88.08
2023-10-28T07:34:42.163Z,88.25
2023-10-28T07:37:11.976Z,88.36
2023-10-28T07:39:42.829Z,88.59
2023-10-28T07:42:11.043Z,88.51
2023-10-28T07:44:41.153Z,88.19
2023-10-28T07:47:12.518Z,88.00
2023-10-28T07:49:42.823Z,87.56
2023-10-28T07:52:11.086Z,87.13
2023-10-28T07:54:39.316Z,86.97
2023-10-28T07:57:07.847Z,86.99
2023-10-28T07:59:36.676Z,86.84
2023-10-28T08:02:05.258Z,86.62
2023-10-28T08:04:34.404Z,86.08
2023-10-28T08:07:04.963Z,86.28
2023-10-28T08:09:33.053Z,86.13
2023-10-28T08:12:01.673Z,86.45
2023-10-28T08:14:33.010Z,85.93
2023-10-28T08:17:01.629Z,86.21
2023-10-28T08:19:30.773Z,86.18
2023-10-28T08:22:00.918Z,85.98
2023-10-28T08:24:31.193Z,86.15
2023-10-28T08:26:59.778Z,86.37
2023-10-28T08:29:27.875Z,86.91
2023-10-28T08:31:57.795Z,87.22
2023-10-28T08:34:26.483Z,86.73
2023-10-28T08:36:55.787Z,87.08
2023-10-28T08:39:25.224Z,87.04
2023-10-28T08:41:57.323Z,87.65
2023-10-28T08:44:30.456Z,87.72
2023-10-28T08:46:59.240Z,87.57
2023-10-28T08:49:30.794Z,87.55
2023-10-28T08:52:03.708Z,87.45
2023-10-28T08:54:35.324Z,87.55
2023-10-28T08:57:07.032Z,87.16
2023-10-28T08:59:35.520Z,86.82
2023-10-28T09:02:09.619Z,86.10
2023-10-28T09:04:38.097Z,85.76
2023-10-28T09:07:06.903Z,85.33
2023-10-28T09:09:39.171Z,85.26
2023-10-28T09:12:11.664Z,84.86
2023-10-28T09:14:41.362Z,84.60
2023-10-28T09:17:10.231Z,84.93
2023-10-28T09:19:39.282Z,83.72
2023-10-28T09:22:08.033Z,83.65
2023-10-28T09:24:36.622Z,83.82
2023-10-28T09:27:05.833Z,82.55
2023-10-28T09:29:36.465Z,83.46
2023-10-28T09:32:07.522Z,84.37
2023-10-28T09:34:36.138Z,83.12
2023-10-28T09:37:05.865Z,82.94
2023-10-28T09:39:35.155Z,84.06
2023-10-28T09:42:03.790Z,84.26
2023-10-28T09:44:35.553Z,84.66
2023-10-28T09:47:06.623Z,84.27
2023-10-28T09:49:36.242Z,84.30
2023-10-28T09:52:09.292Z,83.92
2023-10-28T09:54:39.270Z,83.85
2023-10-28T09:57:09.143Z,84.09
2023-10-28T09:59:41.373Z,84.17
2023-10-28T10:02:29.973Z,85.10
2023-10-28T10:05:03.721Z,84.32
2023-10-28T10:07:32.202Z,84.56
2023-10-28T10:10:11.318Z,83.99
2023-10-28T10:12:39.829Z,85.29
2023-10-28T10:15:11.843Z,85.97
2023-10-28T10:17:50.658Z,85.01
2023-10-28T10:20:26.671Z,82.97
2023-10-28T10:23:01.857Z,81.68
2023-10-28T10:25:34.083Z,82.27
2023-10-28T10:28:14.526Z,80.64
2023-10-28T10:30:45.061Z,78.93
2023-10-28T10:33:15.518Z,77.92
2023-10-28T10:35:50.461Z,77.09
2023-10-28T10:38:28.803Z,76.42
2023-10-28T10:40:59.956Z,74.49
2023-10-28T10:43:32.994Z,75.58
2023-10-28T10:46:02.035Z,74.52
2023-10-28T10:48:34.420Z,73.40
2023-10-28T10:51:03.632Z,74.68
2023-10-28T10:53:41.972Z,76.02
2023-10-28T10:56:20.395Z,77.43
2023-10-28T10:58:49.141Z,77.41
2023-10-28T11:01:17.432Z,78.52
2023-10-28T11:03:47.297Z,80.19
2023-10-28T11:06:15.769Z,79.03
2023-10-28T11:08:44.092Z,80.47
2023-10-28T11:11:14.599Z,80.35
2023-10-28T11:13:44.522Z,80.53
2023-10-28T11:16:21.910Z,78.91
2023-10-28T11:18:51.594Z,77.98
2023-10-28T11:21:23.816Z,77.94
2023-10-28T11:23:53.112Z,79.11
2023-10-28T11:26:21.210Z,79.79
2023-10-28T11:28:49.731Z,78.92
2023-10-28T11:31:21.439Z,77.18
2023-10-28T11:33:53.636Z,73.43
2023-10-28T11:36:24.437Z,71.87
2023-10-28T11:38:53.285Z,71.88
2023-10-28T11:41:23.446Z,71.16
2023-10-28T11:43:52.605Z,70.87
2023-10-28T11:46:22.433Z,71.09
2023-10-28T11:48:52.587Z,70.41
2023-10-28T11:51:20.598Z,70.25
2023-10-28T11:53:49.417Z,71.38
2023-10-28T11:56:20.934Z,72.01
2023-10-28T11:58:52.126Z,71.62
2023-10-28T12:01:20.729Z,73.79
2023-10-28T12:03:49.050Z,73.35
2023-10-28T12:06:29.528Z,70.43
2023-10-28T12:08:59.807Z,69.08
2023-10-28T12:11:28.521Z,69.56
2023-10-28T12:13:58.328Z,67.27
2023-10-28T12:16:26.645Z,70.46
2023-10-28T12:18:55.278Z,70.49
2023-10-28T12:21:24.779Z,70.70
2023-10-28T12:23:52.945Z,71.51
2023-10-28T12:26:21.063Z,71.07
2023-10-28T12:28:49.918Z,69.79
2023-10-28T12:31:18.331Z,68.73
2023-10-28T12:33:46.890Z,65.75
2023-10-28T12:36:17.352Z,63.78
2023-10-28T12:38:47.095Z,66.04
2023-10-28T12:41:15.635Z,65.98
2023-10-28T12:43:44.029Z,64.22
2023-10-28T12:46:12.994Z,65.28
2023-10-28T12:48:41.269Z,67.46
2023-10-28T12:51:09.690Z,68.61
2023-10-28T12:53:38.030Z,66.58
2023-10-28T12:56:10.339Z,69.26
2023-10-28T12:58:38.736Z,72.59
2023-10-28T13:01:06.931Z,72.95
2023-10-28T13:03:35.225Z,73.84
2023-10-28T13:06:04.202Z,74.22
2023-10-28T13:08:33.557Z,74.00
2023-10-28T13:11:01.848Z,75.69
2023-10-28T13:13:31.464Z,75.29
2023-10-28T13:16:00.453Z,76.10
2023-10-28T13:18:28.766Z,76.38
2023-10-28T13:21:00.696Z,77.82
2023-10-28T13:23:28.949Z,78.88
2023-10-28T13:25:57.190Z,78.97
2023-10-28T13:28:25.369Z,78.16
2023-10-28T13:30:54.914Z,76.19
2023-10-28T13:33:23.272Z,77.83
2023-10-28T13:35:51.382Z,78.47
2023-10-28T13:38:19.600Z,78.24
2023-10-28T13:40:47.817Z,77.45
2023-10-28T13:43:16.533Z,78.56
2023-10-28T13:45:44.701Z,77.57
2023-10-28T13:48:17.546Z,77.14
2023-10-28T13:50:47.008Z,78.92
2023-10-28T13:53:15.297Z,78.10
2023-10-28T13:55:43.587Z,77.27
2023-10-28T13:58:11.747Z,77.81
2023-10-28T14:00:39.905Z,77.79
2023-10-28T14:03:08.099Z,77.04
2023-10-28T14:05:39.724Z,77.63
2023-10-28T14:08:07.908Z,76.75
2023-10-28T14:10:36.369Z,76.90
2023-10-28T14:13:04.868Z,77.07
2023-10-28T14:15:32.940Z,76.72
2023-10-28T14:18:01.137Z,77.14
2023-10-28T14:20:29.897Z,76.63
2023-10-28T14:22:59.388Z,77.06
2023-10-28T14:25:28.004Z,77.82
2023-10-28T14:27:56.203Z,78.00
2023-10-28T14:30:24.449Z,77.04
2023-10-28T14:32:52.636Z,76.22
2023-10-28T14:35:20.759Z,77.16
2023-10-28T14:37:48.890Z,77.08
2023-10-28T14:40:18.719Z,76.68
2023-10-28T14:42:46.982Z,75.65
2023-10-28T14:45:15.241Z,76.66
2023-10-28T14:47:44.823Z,75.91
2023-10-28T14:50:15.050Z,76.04
2023-10-28T14:52:43.712Z,76.35
2023-10-28T14:55:13.055Z,77.35
2023-10-28T14:57:53.875Z,77.91
2023-10-28T15:00:31.355Z,76.74
2023-10-28T15:02:59.808Z,77.90
2023-10-28T15:05:28.712Z,77.74
2023-10-28T15:07:56.920Z,77.99
2023-10-28T15:10:25.045Z,78.15
2023-10-28T15:12:54.679Z,76.88
2023-10-28T15:15:25.167Z,77.40
2023-10-28T15:17:53.800Z,77.15
2023-10-28T15:20:22.076Z,77.77
2023-10-28T15:22:50.198Z,77.55
2023-10-28T15:25:19.076Z,77.40
2023-10-28T15:27:47.377Z,77.67
2023-10-28T15:30:18.168Z,78.20
2023-10-28T15:32:46.485Z,78.22
2023-10-28T15:35:14.681Z,77.30
2023-10-28T15:37:44.363Z,78.65
2023-10-28T15:40:17.979Z,78.51
2023-10-28T15:42:46.375Z,78.56
2023-10-28T15:45:14.994Z,78.66
2023-10-28T15:47:44.556Z,80.53
2023-10-28T15:50:13.975Z,78.96
2023-10-28T15:52:42.599Z,79.82
2023-10-28T15:55:10.871Z,79.83
2023-10-28T15:57:38.991Z,79.17
2023-10-28T16:00:09.272Z,78.90
2023-10-28T16:02:37.676Z,79.65
2023-10-28T16:05:08.782Z,79.11
2023-10-28T16:07:37.087Z,79.48
2023-10-28T16:10:06.381Z,78.89
2023-10-28T16:12:35.734Z,79.44
2023-10-28T16:15:07.039Z,79.86
2023-10-28T16:17:35.413Z,79.87
2023-10-28T16:20:04.881Z,80.19
2023-10-28T16:22:34.830Z,80.30
2023-10-28T16:25:03.345Z,79.93
2023-10-28T16:27:31.639Z,80.50
2023-10-28T16:29:59.744Z,80.78
2023-10-28T16:32:28.058Z,80.67
2023-10-28T16:34:56.438Z,81.00
2023-10-28T16:37:24.751Z,80.30
2023-10-28T16:39:55.822Z,80.90
2023-10-28T16:42:25.022Z,81.22
2023-10-28T16:44:53.151Z,80.75
2023-10-28T16:47:21.585Z,81.37
2023-10-28T16:49:50.595Z,80.89
2023-10-28T16:52:19.062Z,80.39
2023-10-28T16:54:47.622Z,80.48
2023-10-28T16:57:18.797Z,80.34
2023-10-28T16:59:47.298Z,80.50
2023-10-28T17:02:15.695Z,80.35
2023-10-28T17:04:43.875Z,80.71
2023-10-28T17:07:12.066Z,81.92
2023-10-28T17:09:40.235Z,82.21
2023-10-28T17:12:11.169Z,81.35
2023-10-28T17:14:40.744Z,81.37
2023-10-28T17:17:12.140Z,81.09
2023-10-28T17:19:41.419Z,80.38
2023-10-28T17:22:09.675Z,80.94
2023-10-28T17:24:37.854Z,80.61
2023-10-28T17:27:06.783Z,80.73
2023-10-28T17:29:34.910Z,79.86
2023-10-28T17:32:04.890Z,80.18
2023-10-28T17:34:36.009Z,79.40
2023-10-28T17:37:04.201Z,79.48
2023-10-28T17:39:32.457Z,79.41
2023-10-28T17:42:00.652Z,79.22
2023-10-28T17:44:28.940Z,78.74
2023-10-28T17:46:57.659Z,78.66
2023-10-28T17:49:27.777Z,78.91
2023-10-28T17:51:56.985Z,79.41
2023-10-28T17:54:26.003Z,79.73
2023-10-28T17:56:54.985Z,79.20
2023-10-28T17:59:23.221Z,80.28
2023-10-28T18:01:51.525Z,80.51
2023-10-28T18:04:19.637Z,80.69
2023-10-28T18:06:49.128Z,80.33
2023-10-28T18:09:17.300Z,80.75
2023-10-28T18:11:45.538Z,80.71
2023-10-28T18:14:13.641Z,79.76
2023-10-28T18:16:41.998Z,79.83
2023-10-28T18:19:10.202Z,79.82
2023-10-28T18:21:38.389Z,79.72
2023-10-28T18:24:09.507Z,80.48
2023-10-28T18:26:37.711Z,79.93
2023-10-28T18:29:06.164Z,79.78
2023-10-28T18:31:34.591Z,80.07
2023-10-28T18:34:04.149Z,79.44
2023-10-28T18:36:32.396Z,79.79
2023-10-28T18:39:00.565Z,79.74
2023-10-28T18:41:30.732Z,79.48
2023-10-28T18:43:58.977Z,79.25
2023-10-28T18:46:27.883Z,79.40
2023-10-28T18:48:56.011Z,79.25
2023-10-28T18:51:24.756Z,78.72
2023-10-28T18:53:52.941Z,78.94
2023-10-28T18:56:25.654Z,79.44
2023-10-28T18:58:55.412Z,79.41
2023-10-28T19:01:24.052Z,78.87
2023-10-28T19:03:52.773Z,79.47
2023-10-28T19:06:20.976Z,79.17
2023-10-28T19:08:49.901Z,80.04
2023-10-28T19:11:18.096Z,79.23
2023-10-28T19:13:46.880Z,79.64
2023-10-28T19:16:17.269Z,79.85
2023-10-28T19:18:45.418Z,80.28
2023-10-28T19:21:13.607Z,79.65
2023-10-28T19:23:41.878Z,79.46
2023-10-28T19:26:10.306Z,79.58
2023-10-28T19:28:39.094Z,80.18
2023-10-28T19:31:07.153Z,80.97
2023-10-28T19:33:37.142Z,80.13
2023-10-28T19:36:07.518Z,79.65
2023-10-28T19:38:36.219Z,81.08
2023-10-28T19:41:04.391Z,80.58
2023-10-28T19:43:34.060Z,80.01
2023-10-28T19:46:07.256Z,80.53
2023-10-28T19:48:39.259Z,80.67
2023-10-28T19:51:08.756Z,81.12
2023-10-28T19:53:37.902Z,80.22
2023-10-28T19:56:08.058Z,80.79
2023-10-28T19:58:39.154Z,80.45
2023-10-28T20:01:07.612Z,80.69
2023-10-28T20:03:38.015Z,81.44
2023-10-28T20:06:07.724Z,81.34
2023-10-28T20:08:37.978Z,82.33
2023-10-28T20:11:09.678Z,82.82
2023-10-28T20:13:39.261Z,82.80
2023-10-28T20:16:07.883Z,82.73
2023-10-28T20:18:37.518Z,83.61
2023-10-28T20:21:05.871Z,83.58
2023-10-28T20:23:34.125Z,83.76
2023-10-28T20:26:02.487Z,83.65
2023-10-28T20:28:30.687Z,83.94
2023-10-28T20:31:03.856Z,83.01
2023-10-28T20:33:32.590Z,82.85
2023-10-28T20:36:02.359Z,83.11
2023-10-28T20:38:30.587Z,83.43
2023-10-28T20:40:58.683Z,83.40
2023-10-28T20:43:26.914Z,83.59
2023-10-28T20:45:55.155Z,83.29
2023-10-28T20:48:23.964Z,82.93
2023-10-28T20:50:52.342Z,82.73
2023-10-28T20:53:23.674Z,83.02
2023-10-28T20:55:53.601Z,83.55
2023-10-28T20:58:22.181Z,83.24
2023-10-28T21:00:50.493Z,83.25
2023-10-28T21:03:19.036Z,82.13
2023-10-28T21:05:47.254Z,82.38
2023-10-28T21:08:15.392Z,82.06
2023-10-28T21:10:45.251Z,81.81
2023-10-28T21:13:13.354Z,81.29
2023-10-28T21:15:41.579Z,81.05
2023-10-28T21:18:14.118Z,81.63
2023-10-28T21:20:43.113Z,81.32
2023-10-28T21:23:11.474Z,81.75
2023-10-28T21:25:39.624Z,82.61
2023-10-28T21:28:09.248Z,81.98
2023-10-28T21:30:38.031Z,82.63
2023-10-28T21:33:06.464Z,83.08
2023-10-28T21:35:34.793Z,82.89
2023-10-28T21:38:03.222Z,83.34
2023-10-28T21:40:31.369Z,83.83
2023-10-28T21:43:00.899Z,84.45
2023-10-28T21:45:31.407Z,84.87
2023-10-28T21:48:00.279Z,84.58
2023-10-28T21:50:28.823Z,84.76
2023-10-28T21:52:57.106Z,84.58
2023-10-28T21:55:25.345Z,84.74
2023-10-28T21:57:53.451Z,84.31
2023-10-28T22:00:37.041Z,84.75
2023-10-28T22:03:11.106Z,84.75
2023-10-28T22:05:39.491Z,84.48
2023-10-28T22:08:08.610Z,84.90
2023-10-28T22:10:36.745Z,85.33
2023-10-28T22:13:05.462Z,85.02
2023-10-28T22:15:33.818Z,83.98
2023-10-28T22:18:01.935Z,83.51
2023-10-28T22:20:31.531Z,83.22
2023-10-28T22:23:00.086Z,83.47
2023-10-28T22:25:29.038Z,83.52
2023-10-28T22:28:11.186Z,83.66
2023-10-28T22:30:42.849Z,84.54
2023-10-28T22:33:11.190Z,83.65
2023-10-28T22:35:41.300Z,84.87
2023-10-28T22:38:10.409Z,84.84
2023-10-28T22:40:41.580Z,84.99
2023-10-28T22:43:11.023Z,85.22
2023-10-28T22:45:39.471Z,85.60
2023-10-28T22:48:07.713Z,85.70
2023-10-28T22:50:37.852Z,86.25
2023-10-28T22:53:09.918Z,86.08
2023-10-28T22:55:38.091Z,86.32
2023-10-28T22:58:08.342Z,86.77
2023-10-28T23:00:36.576Z,86.58
2023-10-28T23:03:08.462Z,87.07
2023-10-28T23:05:37.336Z,87.07
2023-10-28T23:08:07.313Z,87.55
2023-10-28T23:10:35.836Z,87.73
2023-10-28T23:13:03.912Z,87.81
2023-10-28T23:15:32.303Z,87.55
2023-10-28T23:18:00.458Z,88.03
2023-10-28T23:20:28.806Z,88.04
2023-10-28T23:22:57.561Z,88.75
2023-10-28T23:25:27.169Z,88.40
2023-10-28T23:27:55.349Z,88.41
2023-10-28T23:30:27.375Z,88.92
2023-10-28T23:32:55.705Z,88.71
2023-10-28T23:35:25.520Z,88.02
2023-10-28T23:37:54.116Z,87.95
2023-10-28T23:40:22.254Z,88.40
2023-10-28T23:42:51.797Z,88.74
2023-10-28T23:45:19.969Z,88.87
2023-10-28T23:47:48.205Z,88.43
2023-10-28T23:50:16.472Z,88.30
2023-10-28T23:52:44.850Z,87.86
2023-10-28T23:55:13.059Z,87.82
2023-10-28T23:57:43.135Z,88.10
